x

South Huron - 43nm East Of Oscoda, Mi (45008) Wave Buoy

1:50am - Thu 18th Sep 2014 All times are CDT. -5 hours from GMT.

  • Sig Wave height 2.0ft
  • Swell Direction
  • Peak Period 3s
  • Average Period 3s
  • Wind
    16mph, 18mph gusts
  • Sea Temp 57°f
  • Air Temp 54°f
  • Sea Pressure 1016.3mb
  • South Huron - 43nm East Of Oscoda, Mi
  • South Huron - 43nm East Of Oscoda, Mi

More Historic Weather Station data

Upgrade to MSW Pro to gain access to the past 30 days of data for over 8000 Wavebouys and Weather Stations around the globe.

Join Pro

Comparision Forecast

View Surf forecast
   
Thu 09/18 1:50am 2ft 3s 3s 16 18 mph 1016.3mb 57f 54f
12:50am 1.6ft 3s 3s 18 20 mph 1015.9mb 57f 55f
Wed 09/17 11:50pm 1.3ft 3s 3s 16 18 mph 1015.2mb 58f 56f
10:50pm 1.3ft 4s 3s 13 16 mph 1014.8mb 58f 57f
9:50pm 1.3ft 4s 3s 16 22 mph 1014.1mb 58f 61f
8:50pm 1.3ft 4s 3s 13
mph
1013.8mb 58f 61f
7:50pm 1.3ft 4s 3s 11 13 mph 1013.6mb 59f 62f
6:50pm 1.3ft 4s 3s 13 16 mph 1013.4mb 59f 62f
5:50pm 1.3ft 4s 3s 13 16 mph 1013.3mb 60f 63f
4:50pm 1.3ft 4s 3s 11 13 mph 1013.4mb 61f 62f
3:50pm 1.6ft 4s 3s 13 16 mph 1013.5mb 61f 62f
2:50pm 2ft 4s 3s 16 18 mph 1013.5mb 61f 62f
1:50pm 2ft 4s 3s 13
mph
1013.8mb 61f 60f
12:50pm 2.5ft 4s 4s 13 16 mph 1014.2mb 60f 59f
11:50am 2.5ft 4s 3s 16
mph
1014.4mb 60f 58f
10:50am 2.5ft 4s 3s 16 20 mph 1014.6mb 59f 56f
9:50am 2.5ft 4s 3s 16 18 mph 1015mb 58f 56f
8:50am 2ft 4s 3s 16 18 mph 1015.1mb 58f 56f
7:50am 2ft 4s 3s 16 18 mph 1015.1mb 58f 56f
6:50am 2ft 4s 3s 13 16 mph 1015.4mb 58f 57f
5:50am 2ft 4s 3s 16 18 mph 1015.1mb 58f 58f
4:50am 2ft 4s 3s 13 18 mph 1015.4mb 58f 58f
3:50am 1.6ft 4s 3s 16 18 mph 1015.5mb 58f 59f
2:50am 1.6ft 4s 3s 13 16 mph 1015.9mb 58f 58f
1:50am 1.6ft 4s 3s 13 16 mph 1016.1mb 58f 58f
12:50am 2ft 4s 3s 16 18 mph 1016.1mb 58f 58f
Tue 09/16 11:50pm 1.6ft 4s 3s 18 20 mph 1016.2mb 59f 59f
10:50pm 1.6ft 4s 3s 18 20 mph 1016.1mb 59f 60f
9:50pm 1.6ft 4s 3s 16 18 mph 1016.3mb 58f 60f
8:50pm 2.5ft 4s 3s 16 20 mph 1016.5mb 58f 60f
7:50pm 2.5ft 4s 3s 16 20 mph 1016.4mb 58f 60f
6:50pm 2.5ft 4s 3s 16 18 mph 1016.5mb 58f 60f
5:50pm 2.5ft 4s 3s 18 20 mph 1016.6mb 58f 60f
3:50pm 1.3ft 3s 3s 13 16 mph 1017.2mb 59f 59f
2:50pm 1ft 4s 3s 13
mph
1017.6mb 59f 58f
1:50pm 1ft 4s 4s 9 11 mph 1018.1mb 59f 57f
12:50pm 1.3ft 4s 4s 7 9 mph 1018.8mb 59f 56f
11:50am 1.3ft 4s 4s 4 9 mph 1019.2mb 58f 55f
10:50am 1.6ft 4s 4s 7 9 mph 1019.7mb 58f 55f
9:50am 1.6ft 4s 4s 7 9 mph 1019.9mb 58f 55f
8:50am 1.6ft 4s 3s 9 11 mph 1020.2mb 58f 55f
7:50am 1.6ft 4s 3s 9 11 mph 1019.7mb 58f 55f
6:50am 1.6ft 4s 3s 11
mph
1019.7mb 58f 55f
5:50am 1.6ft 4s 3s 13 16 mph 1019.2mb 58f 54f
4:50am 1.6ft 3s 3s 13 16 mph 1018.5mb 58f 55f
3:50am 1.3ft 3s 3s 13 16 mph 1018.5mb 58f 55f
2:50am 1.3ft 3s 3s 13 16 mph 1018.2mb 58f 56f
1:50am 1.3ft 3s 3s 13 16 mph 1017.9mb 58f 56f
12:50am 1ft 3s 3s 13
mph
1017.8mb 58f 56f
Mon 09/15 11:50pm 1ft 3s 3s 11 13 mph 1017.8mb 58f 57f
10:50pm 1.3ft 3s 3s 9 11 mph 1017.9mb 58f 56f
9:50pm 1ft 3s 3s 11 13 mph 1017.9mb 58f 58f
8:50pm 1ft 3s 3s 11 13 mph 1017.9mb 58f 57f
7:50pm 1ft 3s 3s 11
mph
1017.7mb 58f 57f
6:50pm 1.3ft 3s 3s 9 13 mph 1017.5mb 58f 57f
5:50pm 1ft 4s 3s 16 18 mph 1017.5mb 58f 57f
4:50pm 1.3ft 4s 3s 9 11 mph 1017.5mb 58f 57f
3:50pm 1.6ft 4s 3s 9 11 mph 1017.7mb 58f 57f
2:50pm 1.6ft 5s 4s 11 13 mph 1018.1mb 58f 57f
1:50pm 2ft 5s 4s 11 13 mph 1018.6mb 59f 57f
12:50pm 2.5ft 4s 4s 11 13 mph 1018.5mb 59f 56f
11:50am 3ft 4s 4s 13 16 mph 1019mb 59f 56f
10:50am 3ft 5s 4s 18 20 mph 1019.4mb 59f 56f
9:50am 3.5ft 4s 4s 18 20 mph 1019.6mb 59f 56f
8:50am 3.5ft 4s 4s 20 22 mph 1019.4mb 59f 57f
7:50am 3ft 4s 4s 18 22 mph 1019.6mb 59f 58f
6:50am 2.5ft 4s 3s 18 22 mph 1019.8mb 59f 58f
5:50am 2.5ft 4s 3s 18 20 mph 1019.8mb 59f 57f
4:50am 2.5ft 4s 4s 18 20 mph 1019.9mb 59f 57f
3:50am 2.5ft 4s 4s 18 20 mph 1020mb 59f 57f
2:50am 2.5ft 4s 4s 18 22 mph 1020.2mb 59f 57f
1:50am 2.5ft 4s 4s 16 20 mph 1020.4mb 59f 58f
12:50am 2.5ft 4s 4s 16 18 mph 1020.6mb 59f 58f
Sun 09/14 11:50pm 2.5ft 4s 4s 16 20 mph 1020.7mb 59f 58f
10:50pm 2.5ft 4s 3s 18 20 mph 1020.7mb 59f 58f
9:50pm 2ft 4s 3s 16 18 mph 1020.8mb 60f 59f
8:50pm 1.6ft 3s 3s 18 22 mph 1020.9mb 60f 59f
7:50pm 1.6ft 3s 3s 13 18 mph 1021.5mb 60f 59f
6:50pm 1.6ft 4s 3s 13 16 mph 1021.6mb 60f 58f
5:50pm 1.3ft 3s 3s 11 16 mph 1021.7mb 60f 58f
4:50pm 1.3ft 3s 3s 9 11 mph 1022mb 60f 58f
3:50pm 1.6ft 3s 3s 11 13 mph 1022.5mb 60f 57f
2:50pm 1.6ft 3s 3s 13 18 mph 1023.1mb 60f 57f
1:50pm 1.6ft 3s 3s 13 16 mph 1023.7mb 60f 56f
12:50pm 1.6ft 4s 3s 16 20 mph 1024.5mb 60f 56f
11:50am 1.6ft 3s 3s 16 18 mph 1024.9mb 60f 56f
10:50am 1.6ft 3s 3s 16 18 mph 1025.6mb 60f 56f
9:50am 1ft 3s 3s 13 18 mph 1025.8mb 59f 55f
8:50am 1.3ft 3s 3s 11 13 mph 1025.9mb 59f 55f